Terminal Aerodrome Forecast
Issued by NWS

Home | Current Version | Previous Version | Text Only | Print | Product List | Glossary On
Versions: 1 2 3 4 5 6 7 8 9 10 11 12 13 14 15 16 17 18 19
000
FTUS46 KMTR 232031 AAA
TAFSTS
TAF AMD
KSTS 232031Z 2321/2418 20009KT P6SM BKN020
     FM232300 20009KT P6SM SCT020 SCT100
     FM240300 16004KT P6SM BKN015
     FM240800 VRB03KT P6SM OVC008=

USA.gov is the U.S. government's official web portal to all federal, state and local government web resources and services.